Time;durP1;ratioP1;P1;durP2;ratioP2;P2;SDS_P1;SDS_P2;PMS_P1;PMS_P2;Temp;Humidity;BMP_temperature;BMP_pressure;BME280_temperature;BME280_humidity;BME280_pressure;Samples;Min_cycle;Max_cycle;Signal;HPM_P1;HPM_P2
2021/01/20 00:00:32;;;;;;;1.7;1.15;;;;;;;3.79;100;94834.7;;;;
2021/01/20 00:01:33;;;;;;;1.7;1.15;;;;;;;3.79;100;94834.7;;;;
2021/01/20 00:02:33;;;;;;;1.7;1.15;;;;;;;3.79;100;94834.7;;;;
2021/01/20 00:03:34;;;;;;;1.7;1.15;;;;;;;3.79;100;94834.7;;;;
2021/01/20 00:04:34;;;;;;;1.7;1.15;;;;;;;3.79;100;94834.7;;;;
2021/01/20 00:05:35;;;;;;;1.7;1.15;;;;;;;3.79;100;94834.7;;;;
2021/01/20 00:06:35;;;;;;;1.7;1.15;;;;;;;3.79;100;94834.7;;;;
2021/01/20 00:07:36;;;;;;;1.7;1.15;;;;;;;3.79;100;94834.7;;;;
2021/01/20 00:08:36;;;;;;;1.7;1.15;;;;;;;3.79;100;94834.7;;;;
2021/01/20 00:09:37;;;;;;;1.7;1.15;;;;;;;3.79;100;94834.7;;;;
2021/01/20 00:10:39;;;;;;;1.85;1.3;;;;;;;3.79;100;94808.01;;;;
2021/01/20 00:11:39;;;;;;;1.85;1.3;;;;;;;3.79;100;94808.01;;;;
2021/01/20 00:12:40;;;;;;;1.85;1.3;;;;;;;3.79;100;94808.01;;;;
2021/01/20 00:13:40;;;;;;;1.85;1.3;;;;;;;3.79;100;94808.01;;;;
2021/01/20 00:14:41;;;;;;;1.85;1.3;;;;;;;3.79;100;94808.01;;;;
2021/01/20 00:15:41;;;;;;;1.85;1.3;;;;;;;3.79;100;94808.01;;;;
2021/01/20 00:16:42;;;;;;;1.85;1.3;;;;;;;3.79;100;94808.01;;;;
2021/01/20 00:17:43;;;;;;;1.85;1.3;;;;;;;3.79;100;94808.01;;;;
2021/01/20 00:18:44;;;;;;;1.85;1.3;;;;;;;3.79;100;94808.01;;;;
2021/01/20 00:19:44;;;;;;;1.85;1.3;;;;;;;3.79;100;94808.01;;;;
2021/01/20 00:20:45;;;;;;;1.4;1.3;;;;;;;3.57;100;94800.3;;;;
2021/01/20 00:21:45;;;;;;;1.4;1.3;;;;;;;3.57;100;94800.3;;;;
2021/01/20 00:22:47;;;;;;;1.4;1.3;;;;;;;3.57;100;94800.3;;;;
2021/01/20 00:23:48;;;;;;;1.4;1.3;;;;;;;3.57;100;94800.3;;;;
2021/01/20 00:24:48;;;;;;;1.4;1.3;;;;;;;3.57;100;94800.3;;;;
2021/01/20 00:25:49;;;;;;;1.4;1.3;;;;;;;3.57;100;94800.3;;;;
2021/01/20 00:26:50;;;;;;;1.4;1.3;;;;;;;3.57;100;94800.3;;;;
2021/01/20 00:27:50;;;;;;;1.4;1.3;;;;;;;3.57;100;94800.3;;;;
2021/01/20 00:28:50;;;;;;;1.4;1.3;;;;;;;3.57;100;94800.3;;;;
2021/01/20 00:29:51;;;;;;;1.4;1.3;;;;;;;3.57;100;94800.3;;;;
2021/01/20 00:30:54;;;;;;;1.4;1.3;;;;;;;3.57;100;94800.3;;;;
2021/01/20 00:31:54;;;;;;;1.35;1.2;;;;;;;3.49;100;94777.84;;;;
2021/01/20 00:32:55;;;;;;;1.35;1.2;;;;;;;3.49;100;94777.84;;;;
2021/01/20 00:33:57;;;;;;;1.35;1.2;;;;;;;3.49;100;94777.84;;;;
2021/01/20 00:34:58;;;;;;;1.35;1.2;;;;;;;3.49;100;94777.84;;;;
2021/01/20 00:35:58;;;;;;;1.35;1.2;;;;;;;3.49;100;94777.84;;;;
2021/01/20 00:36:59;;;;;;;1.35;1.2;;;;;;;3.49;100;94777.84;;;;
2021/01/20 00:37:59;;;;;;;1.35;1.2;;;;;;;3.49;100;94777.84;;;;
2021/01/20 00:39:00;;;;;;;1.35;1.2;;;;;;;3.49;100;94777.84;;;;
2021/01/20 00:40:00;;;;;;;1.35;1.2;;;;;;;3.49;100;94777.84;;;;
2021/01/20 00:41:02;;;;;;;1.35;1.2;;;;;;;3.49;100;94777.84;;;;
2021/01/20 00:42:03;;;;;;;1.3;1.2;;;;;;;3.5;100;94771.04;;;;
2021/01/20 00:43:03;;;;;;;1.3;1.2;;;;;;;3.5;100;94771.04;;;;
2021/01/20 00:44:04;;;;;;;1.3;1.2;;;;;;;3.5;100;94771.04;;;;
2021/01/20 00:45:05;;;;;;;1.3;1.2;;;;;;;3.5;100;94771.04;;;;
2021/01/20 00:46:07;;;;;;;1.3;1.2;;;;;;;3.5;100;94771.04;;;;
2021/01/20 00:47:07;;;;;;;1.3;1.2;;;;;;;3.5;100;94771.04;;;;
2021/01/20 00:48:08;;;;;;;1.3;1.2;;;;;;;3.5;100;94771.04;;;;
2021/01/20 00:49:09;;;;;;;1.3;1.2;;;;;;;3.5;100;94771.04;;;;
2021/01/20 00:50:09;;;;;;;1.3;1.2;;;;;;;3.5;100;94771.04;;;;
2021/01/20 00:51:13;;;;;;;1.3;1.2;;;;;;;3.5;100;94771.04;;;;
2021/01/20 00:52:13;;;;;;;1.3;1.2;;;;;;;3.5;100;94771.04;;;;
2021/01/20 00:53:14;;;;;;;1.1;1;;;;;;;3.61;100;94761.1;;;;
2021/01/20 00:54:14;;;;;;;1.1;1;;;;;;;3.61;100;94761.1;;;;
2021/01/20 00:55:16;;;;;;;1.1;1;;;;;;;3.61;100;94761.1;;;;
2021/01/20 00:56:17;;;;;;;1.1;1;;;;;;;3.61;100;94761.1;;;;
2021/01/20 00:57:17;;;;;;;1.1;1;;;;;;;3.61;100;94761.1;;;;
2021/01/20 00:58:18;;;;;;;1.1;1;;;;;;;3.61;100;94761.1;;;;
2021/01/20 00:59:18;;;;;;;1.1;1;;;;;;;3.61;100;94761.1;;;;
2021/01/20 01:00:19;;;;;;;1.1;1;;;;;;;3.61;100;94761.1;;;;
2021/01/20 01:01:20;;;;;;;1.1;1;;;;;;;3.61;100;94761.1;;;;
2021/01/20 01:02:21;;;;;;;1.1;1;;;;;;;3.61;100;94761.1;;;;
2021/01/20 01:03:21;;;;;;;1.1;1;;;;;;;3.72;100;94776.37;;;;
2021/01/20 01:04:22;;;;;;;1.1;1;;;;;;;3.72;100;94776.37;;;;
2021/01/20 01:05:22;;;;;;;1.1;1;;;;;;;3.72;100;94776.37;;;;
2021/01/20 01:06:23;;;;;;;1.1;1;;;;;;;3.72;100;94776.37;;;;
2021/01/20 01:07:23;;;;;;;1.1;1;;;;;;;3.72;100;94776.37;;;;
2021/01/20 01:08:25;;;;;;;1.1;1;;;;;;;3.72;100;94776.37;;;;
2021/01/20 01:09:25;;;;;;;1.1;1;;;;;;;3.72;100;94776.37;;;;
2021/01/20 01:10:26;;;;;;;1.1;1;;;;;;;3.72;100;94776.37;;;;
2021/01/20 01:11:26;;;;;;;1.1;1;;;;;;;3.72;100;94776.37;;;;
2021/01/20 01:12:27;;;;;;;1.1;1;;;;;;;3.72;100;94776.37;;;;
2021/01/20 01:13:27;;;;;;;1.1;1;;;;;;;3.72;100;94776.37;;;;
2021/01/20 01:14:28;;;;;;;1;0.9;;;;;;;3.83;100;94767.44;;;;
2021/01/20 01:15:29;;;;;;;1;0.9;;;;;;;3.83;100;94767.44;;;;
2021/01/20 01:16:31;;;;;;;1;0.9;;;;;;;3.83;100;94767.44;;;;
2021/01/20 01:17:31;;;;;;;1;0.9;;;;;;;3.83;100;94767.44;;;;
2021/01/20 01:18:32;;;;;;;1;0.9;;;;;;;3.83;100;94767.44;;;;
2021/01/20 01:19:32;;;;;;;1;0.9;;;;;;;3.83;100;94767.44;;;;
2021/01/20 01:20:32;;;;;;;1;0.9;;;;;;;3.83;100;94767.44;;;;
2021/01/20 01:21:33;;;;;;;1;0.9;;;;;;;3.83;100;94767.44;;;;
2021/01/20 01:22:34;;;;;;;1;0.9;;;;;;;3.83;100;94767.44;;;;
2021/01/20 01:23:34;;;;;;;1;0.9;;;;;;;3.83;100;94767.44;;;;
2021/01/20 01:24:35;;;;;;;1;0.9;;;;;;;3.83;100;94767.44;;;;
2021/01/20 01:25:35;;;;;;;0.9;0.9;;;;;;;3.87;100;94779.36;;;;
2021/01/20 01:26:36;;;;;;;0.9;0.9;;;;;;;3.87;100;94779.36;;;;
2021/01/20 01:27:36;;;;;;;0.9;0.9;;;;;;;3.87;100;94779.36;;;;
2021/01/20 01:28:37;;;;;;;0.9;0.9;;;;;;;3.87;100;94779.36;;;;
2021/01/20 01:29:37;;;;;;;0.9;0.9;;;;;;;3.87;100;94779.36;;;;
2021/01/20 01:30:37;;;;;;;0.9;0.9;;;;;;;3.87;100;94779.36;;;;
2021/01/20 01:31:38;;;;;;;0.9;0.9;;;;;;;3.87;100;94779.36;;;;
2021/01/20 01:32:39;;;;;;;0.9;0.9;;;;;;;3.87;100;94779.36;;;;
2021/01/20 01:33:39;;;;;;;0.9;0.9;;;;;;;3.87;100;94779.36;;;;
2021/01/20 01:34:40;;;;;;;0.9;0.9;;;;;;;3.87;100;94779.36;;;;
2021/01/20 01:35:40;;;;;;;0.9;0.9;;;;;;;3.82;100;94794.65;;;;
2021/01/20 01:36:41;;;;;;;0.9;0.9;;;;;;;3.82;100;94794.65;;;;
2021/01/20 01:37:41;;;;;;;0.9;0.9;;;;;;;3.82;100;94794.65;;;;
2021/01/20 01:38:42;;;;;;;0.9;0.9;;;;;;;3.82;100;94794.65;;;;
2021/01/20 01:39:42;;;;;;;0.9;0.9;;;;;;;3.82;100;94794.65;;;;
2021/01/20 01:40:43;;;;;;;0.9;0.9;;;;;;;3.82;100;94794.65;;;;
2021/01/20 01:41:43;;;;;;;0.9;0.9;;;;;;;3.82;100;94794.65;;;;
2021/01/20 01:42:44;;;;;;;0.9;0.9;;;;;;;3.82;100;94794.65;;;;
2021/01/20 01:43:44;;;;;;;0.9;0.9;;;;;;;3.82;100;94794.65;;;;
2021/01/20 01:44:45;;;;;;;0.9;0.9;;;;;;;3.82;100;94794.65;;;;
2021/01/20 01:45:45;;;;;;;0.9;0.9;;;;;;;3.82;100;94794.65;;;;
2021/01/20 01:46:46;;;;;;;1;0.85;;;;;;;3.68;100;94797.86;;;;
2021/01/20 01:47:47;;;;;;;1;0.85;;;;;;;3.68;100;94797.86;;;;
2021/01/20 01:48:47;;;;;;;1;0.85;;;;;;;3.68;100;94797.86;;;;
2021/01/20 01:49:48;;;;;;;1;0.85;;;;;;;3.68;100;94797.86;;;;
2021/01/20 01:50:49;;;;;;;1;0.85;;;;;;;3.68;100;94797.86;;;;
2021/01/20 01:51:50;;;;;;;1;0.85;;;;;;;3.68;100;94797.86;;;;
2021/01/20 01:52:50;;;;;;;1;0.85;;;;;;;3.68;100;94797.86;;;;
2021/01/20 01:53:51;;;;;;;1;0.85;;;;;;;3.68;100;94797.86;;;;
2021/01/20 01:54:53;;;;;;;1;0.85;;;;;;;3.68;100;94797.86;;;;
2021/01/20 01:55:53;;;;;;;1;0.85;;;;;;;3.68;100;94797.86;;;;
2021/01/20 01:56:54;;;;;;;1.1;1;;;;;;;3.44;100;94792.28;;;;
2021/01/20 01:57:55;;;;;;;1.1;1;;;;;;;3.44;100;94792.28;;;;
2021/01/20 01:58:55;;;;;;;1.1;1;;;;;;;3.44;100;94792.28;;;;
2021/01/20 01:59:57;;;;;;;1.1;1;;;;;;;3.44;100;94792.28;;;;
2021/01/20 02:00:57;;;;;;;1.1;1;;;;;;;3.44;100;94792.28;;;;
2021/01/20 02:02:00;;;;;;;1.1;1;;;;;;;3.44;100;94792.28;;;;
2021/01/20 02:03:01;;;;;;;1.1;1;;;;;;;3.44;100;94792.28;;;;
2021/01/20 02:04:01;;;;;;;1.1;1;;;;;;;3.44;100;94792.28;;;;
2021/01/20 02:05:02;;;;;;;1.1;1;;;;;;;3.44;100;94792.28;;;;
2021/01/20 02:06:04;;;;;;;1.1;1;;;;;;;3.44;100;94792.28;;;;
2021/01/20 02:07:05;;;;;;;1.1;1;;;;;;;3.44;100;94792.28;;;;
2021/01/20 02:08:06;;;;;;;1;0.9;;;;;;;3.07;100;94796.77;;;;
2021/01/20 02:09:07;;;;;;;1;0.9;;;;;;;3.07;100;94796.77;;;;
2021/01/20 02:10:08;;;;;;;1;0.9;;;;;;;3.07;100;94796.77;;;;
2021/01/20 02:11:09;;;;;;;1;0.9;;;;;;;3.07;100;94796.77;;;;
2021/01/20 02:12:22;;;;;;;1;0.9;;;;;;;3.07;100;94796.77;;;;
2021/01/20 02:14:33;;;;;;;1;0.9;;;;;;;3.07;100;94796.77;;;;
2021/01/20 02:15:44;;;;;;;1;0.9;;;;;;;3.07;100;94796.77;;;;
2021/01/20 02:16:57;;;;;;;1;0.9;;;;;;;3.07;100;94796.77;;;;
2021/01/20 02:18:06;;;;;;;1.2;1;;;;;;;2.85;100;94788.69;;;;
2021/01/20 02:19:10;;;;;;;1.2;1;;;;;;;2.85;100;94788.69;;;;
2021/01/20 02:20:16;;;;;;;1.2;1;;;;;;;2.85;100;94788.69;;;;
2021/01/20 02:21:43;;;;;;;1.2;1;;;;;;;2.85;100;94788.69;;;;
2021/01/20 02:23:10;;;;;;;1.2;1;;;;;;;2.85;100;94788.69;;;;
2021/01/20 02:24:17;;;;;;;1.2;1;;;;;;;2.85;100;94788.69;;;;
2021/01/20 02:25:21;;;;;;;1.2;1;;;;;;;2.85;100;94788.69;;;;
2021/01/20 02:26:45;;;;;;;1.2;1;;;;;;;2.85;100;94788.69;;;;
2021/01/20 02:27:57;;;;;;;1.2;1;;;;;;;2.85;100;94788.69;;;;
2021/01/20 02:29:05;;;;;;;1.1;1;;;;;;;2.63;100;94791.09;;;;
2021/01/20 02:30:17;;;;;;;1.1;1;;;;;;;2.63;100;94791.09;;;;
2021/01/20 02:31:20;;;;;;;1.1;1;;;;;;;2.63;100;94791.09;;;;
2021/01/20 02:32:23;;;;;;;1.1;1;;;;;;;2.63;100;94791.09;;;;
2021/01/20 02:33:25;;;;;;;1.1;1;;;;;;;2.63;100;94791.09;;;;
2021/01/20 02:34:27;;;;;;;1.1;1;;;;;;;2.63;100;94791.09;;;;
2021/01/20 02:35:30;;;;;;;1.1;1;;;;;;;2.63;100;94791.09;;;;
2021/01/20 02:36:32;;;;;;;1.1;1;;;;;;;2.63;100;94791.09;;;;
2021/01/20 02:37:34;;;;;;;1.1;1;;;;;;;2.63;100;94791.09;;;;
2021/01/20 02:38:36;;;;;;;1.1;1;;;;;;;2.63;100;94791.09;;;;
2021/01/20 02:39:39;;;;;;;1.1;1;;;;;;;2.44;100;94785.18;;;;
2021/01/20 02:40:40;;;;;;;1.1;1;;;;;;;2.44;100;94785.18;;;;
2021/01/20 02:41:41;;;;;;;1.1;1;;;;;;;2.44;100;94785.18;;;;
2021/01/20 02:42:41;;;;;;;1.1;1;;;;;;;2.44;100;94785.18;;;;
2021/01/20 02:43:43;;;;;;;1.1;1;;;;;;;2.44;100;94785.18;;;;
2021/01/20 02:44:43;;;;;;;1.1;1;;;;;;;2.44;100;94785.18;;;;
2021/01/20 02:45:44;;;;;;;1.1;1;;;;;;;2.44;100;94785.18;;;;
2021/01/20 02:46:44;;;;;;;1.1;1;;;;;;;2.44;100;94785.18;;;;
2021/01/20 02:47:45;;;;;;;1.1;1;;;;;;;2.44;100;94785.18;;;;
2021/01/20 02:48:48;;;;;;;1.1;1;;;;;;;2.44;100;94785.18;;;;
2021/01/20 02:49:49;;;;;;;1.1;1;;;;;;;2.44;100;94785.18;;;;
2021/01/20 02:50:50;;;;;;;0.9;0.85;;;;;;;2.33;100;94775.5;;;;
2021/01/20 02:51:51;;;;;;;0.9;0.85;;;;;;;2.33;100;94775.5;;;;
2021/01/20 02:52:59;;;;;;;0.9;0.85;;;;;;;2.33;100;94775.5;;;;
2021/01/20 02:54:05;;;;;;;0.9;0.85;;;;;;;2.33;100;94775.5;;;;
2021/01/20 02:55:10;;;;;;;0.9;0.85;;;;;;;2.33;100;94775.5;;;;
2021/01/20 02:56:12;;;;;;;0.9;0.85;;;;;;;2.33;100;94775.5;;;;
2021/01/20 02:57:17;;;;;;;0.9;0.85;;;;;;;2.33;100;94775.5;;;;
2021/01/20 02:58:19;;;;;;;0.9;0.85;;;;;;;2.33;100;94775.5;;;;
2021/01/20 02:59:23;;;;;;;0.9;0.85;;;;;;;2.33;100;94775.5;;;;
2021/01/20 03:00:27;;;;;;;0.9;0.85;;;;;;;2.33;100;94775.5;;;;
2021/01/20 03:01:30;;;;;;;1.8;0.9;;;;;;;2.27;100;94767.08;;;;
2021/01/20 03:02:33;;;;;;;1.8;0.9;;;;;;;2.27;100;94767.08;;;;
2021/01/20 03:03:35;;;;;;;1.8;0.9;;;;;;;2.27;100;94767.08;;;;
2021/01/20 03:04:37;;;;;;;1.8;0.9;;;;;;;2.27;100;94767.08;;;;
2021/01/20 03:05:42;;;;;;;1.8;0.9;;;;;;;2.27;100;94767.08;;;;
2021/01/20 03:06:45;;;;;;;1.8;0.9;;;;;;;2.27;100;94767.08;;;;
2021/01/20 03:07:46;;;;;;;1.8;0.9;;;;;;;2.27;100;94767.08;;;;
2021/01/20 03:08:47;;;;;;;1.8;0.9;;;;;;;2.27;100;94767.08;;;;
2021/01/20 03:09:49;;;;;;;1.8;0.9;;;;;;;2.27;100;94767.08;;;;
2021/01/20 03:10:50;;;;;;;1.8;0.9;;;;;;;2.27;100;94767.08;;;;
2021/01/20 03:11:51;;;;;;;1.3;0.9;;;;;;;2.2;100;94778.09;;;;
2021/01/20 03:12:52;;;;;;;1.3;0.9;;;;;;;2.2;100;94778.09;;;;
2021/01/20 03:13:53;;;;;;;1.3;0.9;;;;;;;2.2;100;94778.09;;;;
2021/01/20 03:14:54;;;;;;;1.3;0.9;;;;;;;2.2;100;94778.09;;;;
2021/01/20 03:15:57;;;;;;;1.3;0.9;;;;;;;2.2;100;94778.09;;;;
2021/01/20 03:16:57;;;;;;;1.3;0.9;;;;;;;2.2;100;94778.09;;;;
2021/01/20 03:17:58;;;;;;;1.3;0.9;;;;;;;2.2;100;94778.09;;;;
2021/01/20 03:18:59;;;;;;;1.3;0.9;;;;;;;2.2;100;94778.09;;;;
2021/01/20 03:19:59;;;;;;;1.3;0.9;;;;;;;2.2;100;94778.09;;;;
2021/01/20 03:21:01;;;;;;;1.3;0.9;;;;;;;2.2;100;94778.09;;;;
2021/01/20 03:22:01;;;;;;;1.05;0.9;;;;;;;2.04;100;94767.36;;;;
2021/01/20 03:23:02;;;;;;;1.05;0.9;;;;;;;2.04;100;94767.36;;;;
2021/01/20 03:24:03;;;;;;;1.05;0.9;;;;;;;2.04;100;94767.36;;;;
2021/01/20 03:25:04;;;;;;;1.05;0.9;;;;;;;2.04;100;94767.36;;;;
2021/01/20 03:26:06;;;;;;;1.05;0.9;;;;;;;2.04;100;94767.36;;;;
2021/01/20 03:27:06;;;;;;;1.05;0.9;;;;;;;2.04;100;94767.36;;;;
2021/01/20 03:28:07;;;;;;;1.05;0.9;;;;;;;2.04;100;94767.36;;;;
2021/01/20 03:29:07;;;;;;;1.05;0.9;;;;;;;2.04;100;94767.36;;;;
2021/01/20 03:30:08;;;;;;;1.05;0.9;;;;;;;2.04;100;94767.36;;;;
2021/01/20 03:31:09;;;;;;;1.05;0.9;;;;;;;2.04;100;94767.36;;;;
2021/01/20 03:32:10;;;;;;;1.05;0.9;;;;;;;2.04;100;94767.36;;;;
2021/01/20 03:33:10;;;;;;;1.05;0.9;;;;;;;1.86;100;94749.74;;;;
2021/01/20 03:34:11;;;;;;;1.05;0.9;;;;;;;1.86;100;94749.74;;;;
2021/01/20 03:35:11;;;;;;;1.05;0.9;;;;;;;1.86;100;94749.74;;;;
2021/01/20 03:36:13;;;;;;;1.05;0.9;;;;;;;1.86;100;94749.74;;;;
2021/01/20 03:37:13;;;;;;;1.05;0.9;;;;;;;1.86;100;94749.74;;;;
2021/01/20 03:38:14;;;;;;;1.05;0.9;;;;;;;1.86;100;94749.74;;;;
2021/01/20 03:39:14;;;;;;;1.05;0.9;;;;;;;1.86;100;94749.74;;;;
2021/01/20 03:40:15;;;;;;;1.05;0.9;;;;;;;1.86;100;94749.74;;;;
2021/01/20 03:41:15;;;;;;;1.05;0.9;;;;;;;1.86;100;94749.74;;;;
2021/01/20 03:42:16;;;;;;;1.05;0.9;;;;;;;1.86;100;94749.74;;;;
2021/01/20 03:43:16;;;;;;;1.05;0.9;;;;;;;1.86;100;94749.74;;;;
2021/01/20 03:44:17;;;;;;;1.1;1;;;;;;;1.71;100;94749.44;;;;
2021/01/20 03:45:17;;;;;;;1.1;1;;;;;;;1.71;100;94749.44;;;;
2021/01/20 03:46:18;;;;;;;1.1;1;;;;;;;1.71;100;94749.44;;;;
2021/01/20 03:47:19;;;;;;;1.1;1;;;;;;;1.71;100;94749.44;;;;
2021/01/20 03:48:19;;;;;;;1.1;1;;;;;;;1.71;100;94749.44;;;;
2021/01/20 03:49:20;;;;;;;1.1;1;;;;;;;1.71;100;94749.44;;;;
2021/01/20 03:50:20;;;;;;;1.1;1;;;;;;;1.71;100;94749.44;;;;
2021/01/20 03:51:21;;;;;;;1.1;1;;;;;;;1.71;100;94749.44;;;;
2021/01/20 03:52:21;;;;;;;1.1;1;;;;;;;1.71;100;94749.44;;;;
2021/01/20 03:53:22;;;;;;;1.1;1;;;;;;;1.71;100;94749.44;;;;
2021/01/20 03:54:22;;;;;;;1.15;1.05;;;;;;;1.58;100;94733.4;;;;
2021/01/20 03:55:23;;;;;;;1.15;1.05;;;;;;;1.58;100;94733.4;;;;
2021/01/20 03:56:23;;;;;;;1.15;1.05;;;;;;;1.58;100;94733.4;;;;
2021/01/20 03:57:24;;;;;;;1.15;1.05;;;;;;;1.58;100;94733.4;;;;
2021/01/20 03:58:24;;;;;;;1.15;1.05;;;;;;;1.58;100;94733.4;;;;
2021/01/20 03:59:25;;;;;;;1.15;1.05;;;;;;;1.58;100;94733.4;;;;
2021/01/20 04:00:25;;;;;;;1.15;1.05;;;;;;;1.58;100;94733.4;;;;
2021/01/20 04:01:26;;;;;;;1.15;1.05;;;;;;;1.58;100;94733.4;;;;
2021/01/20 04:02:26;;;;;;;1.15;1.05;;;;;;;1.58;100;94733.4;;;;
2021/01/20 04:03:27;;;;;;;1.15;1.05;;;;;;;1.58;100;94733.4;;;;
2021/01/20 04:04:27;;;;;;;1.15;1.05;;;;;;;1.58;100;94733.4;;;;
2021/01/20 04:05:27;;;;;;;1;0.9;;;;;;;1.35;100;94728.44;;;;
2021/01/20 04:06:28;;;;;;;1;0.9;;;;;;;1.35;100;94728.44;;;;
2021/01/20 04:07:29;;;;;;;1;0.9;;;;;;;1.35;100;94728.44;;;;
2021/01/20 04:08:29;;;;;;;1;0.9;;;;;;;1.35;100;94728.44;;;;
2021/01/20 04:09:30;;;;;;;1;0.9;;;;;;;1.35;100;94728.44;;;;
2021/01/20 04:10:30;;;;;;;1;0.9;;;;;;;1.35;100;94728.44;;;;
2021/01/20 04:11:31;;;;;;;1;0.9;;;;;;;1.35;100;94728.44;;;;
2021/01/20 04:12:31;;;;;;;1;0.9;;;;;;;1.35;100;94728.44;;;;
2021/01/20 04:13:35;;;;;;;1;0.9;;;;;;;1.35;100;94728.44;;;;
2021/01/20 04:14:35;;;;;;;1;0.9;;;;;;;1.35;100;94728.44;;;;
2021/01/20 04:15:36;;;;;;;1.4;1;;;;;;;1.02;100;94726.84;;;;
2021/01/20 04:16:36;;;;;;;1.4;1;;;;;;;1.02;100;94726.84;;;;
2021/01/20 04:17:36;;;;;;;1.4;1;;;;;;;1.02;100;94726.84;;;;
2021/01/20 04:18:38;;;;;;;1.4;1;;;;;;;1.02;100;94726.84;;;;
2021/01/20 04:19:38;;;;;;;1.4;1;;;;;;;1.02;100;94726.84;;;;
2021/01/20 04:20:39;;;;;;;1.4;1;;;;;;;1.02;100;94726.84;;;;
2021/01/20 04:21:39;;;;;;;1.4;1;;;;;;;1.02;100;94726.84;;;;
2021/01/20 04:22:40;;;;;;;1.4;1;;;;;;;1.02;100;94726.84;;;;
2021/01/20 04:23:40;;;;;;;1.4;1;;;;;;;1.02;100;94726.84;;;;
2021/01/20 04:24:41;;;;;;;1.4;1;;;;;;;1.02;100;94726.84;;;;
2021/01/20 04:25:41;;;;;;;1.4;1;;;;;;;1.02;100;94726.84;;;;
2021/01/20 04:26:42;;;;;;;1;0.9;;;;;;;0.76;100;94719.53;;;;
2021/01/20 04:27:43;;;;;;;1;0.9;;;;;;;0.76;100;94719.53;;;;
2021/01/20 04:28:43;;;;;;;1;0.9;;;;;;;0.76;100;94719.53;;;;
2021/01/20 04:29:44;;;;;;;1;0.9;;;;;;;0.76;100;94719.53;;;;
2021/01/20 04:30:44;;;;;;;1;0.9;;;;;;;0.76;100;94719.53;;;;
2021/01/20 04:31:45;;;;;;;1;0.9;;;;;;;0.76;100;94719.53;;;;
2021/01/20 04:32:45;;;;;;;1;0.9;;;;;;;0.76;100;94719.53;;;;
2021/01/20 04:33:45;;;;;;;1;0.9;;;;;;;0.76;100;94719.53;;;;
2021/01/20 04:34:46;;;;;;;1;0.9;;;;;;;0.76;100;94719.53;;;;
2021/01/20 04:35:47;;;;;;;1;0.9;;;;;;;0.76;100;94719.53;;;;
2021/01/20 04:36:47;;;;;;;1;0.9;;;;;;;0.76;100;94719.53;;;;
2021/01/20 04:37:47;;;;;;;2.45;1;;;;;;;0.51;100;94722.58;;;;
2021/01/20 04:38:48;;;;;;;2.45;1;;;;;;;0.51;100;94722.58;;;;
2021/01/20 04:39:48;;;;;;;2.45;1;;;;;;;0.51;100;94722.58;;;;
2021/01/20 04:40:49;;;;;;;2.45;1;;;;;;;0.51;100;94722.58;;;;
2021/01/20 04:41:51;;;;;;;2.45;1;;;;;;;0.51;100;94722.58;;;;
2021/01/20 04:42:51;;;;;;;2.45;1;;;;;;;0.51;100;94722.58;;;;
2021/01/20 04:43:52;;;;;;;2.45;1;;;;;;;0.51;100;94722.58;;;;
2021/01/20 04:44:53;;;;;;;2.45;1;;;;;;;0.51;100;94722.58;;;;
2021/01/20 04:45:54;;;;;;;2.45;1;;;;;;;0.51;100;94722.58;;;;
2021/01/20 04:46:54;;;;;;;2.45;1;;;;;;;0.51;100;94722.58;;;;
2021/01/20 04:47:56;;;;;;;1;0.9;;;;;;;0.38;100;94724.25;;;;
2021/01/20 04:49:00;;;;;;;1;0.9;;;;;;;0.38;100;94724.25;;;;
2021/01/20 04:50:01;;;;;;;1;0.9;;;;;;;0.38;100;94724.25;;;;
2021/01/20 04:51:04;;;;;;;1;0.9;;;;;;;0.38;100;94724.25;;;;
2021/01/20 04:52:06;;;;;;;1;0.9;;;;;;;0.38;100;94724.25;;;;
2021/01/20 04:53:14;;;;;;;1;0.9;;;;;;;0.38;100;94724.25;;;;
2021/01/20 04:54:15;;;;;;;1;0.9;;;;;;;0.38;100;94724.25;;;;
2021/01/20 04:55:16;;;;;;;1;0.9;;;;;;;0.38;100;94724.25;;;;
2021/01/20 04:56:17;;;;;;;1;0.9;;;;;;;0.38;100;94724.25;;;;
2021/01/20 04:57:21;;;;;;;1;0.9;;;;;;;0.38;100;94724.25;;;;
2021/01/20 04:58:23;;;;;;;1;0.9;;;;;;;0.25;100;94716.96;;;;
2021/01/20 04:59:23;;;;;;;1;0.9;;;;;;;0.25;100;94716.96;;;;
2021/01/20 05:00:28;;;;;;;1;0.9;;;;;;;0.25;100;94716.96;;;;
2021/01/20 05:01:28;;;;;;;1;0.9;;;;;;;0.25;100;94716.96;;;;
2021/01/20 05:02:29;;;;;;;1;0.9;;;;;;;0.25;100;94716.96;;;;
2021/01/20 05:03:32;;;;;;;1;0.9;;;;;;;0.25;100;94716.96;;;;
2021/01/20 05:04:33;;;;;;;1;0.9;;;;;;;0.25;100;94716.96;;;;
2021/01/20 05:05:35;;;;;;;1;0.9;;;;;;;0.25;100;94716.96;;;;
2021/01/20 05:06:36;;;;;;;1;0.9;;;;;;;0.25;100;94716.96;;;;
2021/01/20 05:07:37;;;;;;;1;0.9;;;;;;;0.25;100;94716.96;;;;
2021/01/20 05:08:37;;;;;;;1;0.9;;;;;;;0.25;100;94716.96;;;;
2021/01/20 05:09:39;;;;;;;1.7;0.8;;;;;;;0.21;100;94712.64;;;;
2021/01/20 05:10:39;;;;;;;1.7;0.8;;;;;;;0.21;100;94712.64;;;;
2021/01/20 05:11:41;;;;;;;1.7;0.8;;;;;;;0.21;100;94712.64;;;;
2021/01/20 05:12:43;;;;;;;1.7;0.8;;;;;;;0.21;100;94712.64;;;;
2021/01/20 05:13:44;;;;;;;1.7;0.8;;;;;;;0.21;100;94712.64;;;;
2021/01/20 05:14:45;;;;;;;1.7;0.8;;;;;;;0.21;100;94712.64;;;;
2021/01/20 05:15:45;;;;;;;1.7;0.8;;;;;;;0.21;100;94712.64;;;;
2021/01/20 05:16:46;;;;;;;1.7;0.8;;;;;;;0.21;100;94712.64;;;;
2021/01/20 05:17:49;;;;;;;1.7;0.8;;;;;;;0.21;100;94712.64;;;;
2021/01/20 05:18:58;;;;;;;1.7;0.8;;;;;;;0.21;100;94712.64;;;;
2021/01/20 05:19:59;;;;;;;1;0.9;;;;;;;0.25;100;94710.86;;;;
2021/01/20 05:20:59;;;;;;;1;0.9;;;;;;;0.25;100;94710.86;;;;
2021/01/20 05:22:14;;;;;;;1;0.9;;;;;;;0.25;100;94710.86;;;;
2021/01/20 05:23:15;;;;;;;1;0.9;;;;;;;0.25;100;94710.86;;;;
2021/01/20 05:24:15;;;;;;;1;0.9;;;;;;;0.25;100;94710.86;;;;
2021/01/20 05:25:19;;;;;;;1;0.9;;;;;;;0.25;100;94710.86;;;;
2021/01/20 05:26:26;;;;;;;1;0.9;;;;;;;0.25;100;94710.86;;;;
2021/01/20 05:27:42;;;;;;;1;0.9;;;;;;;0.25;100;94710.86;;;;
2021/01/20 05:28:42;;;;;;;1;0.9;;;;;;;0.25;100;94710.86;;;;
2021/01/20 05:29:43;;;;;;;1;0.9;;;;;;;0.25;100;94710.86;;;;
2021/01/20 05:30:57;;;;;;;2.25;0.9;;;;;;;0.32;100;94711.22;;;;
2021/01/20 05:31:59;;;;;;;2.25;0.9;;;;;;;0.32;100;94711.22;;;;
2021/01/20 05:33:14;;;;;;;2.25;0.9;;;;;;;0.32;100;94711.22;;;;
2021/01/20 05:34:17;;;;;;;2.25;0.9;;;;;;;0.32;100;94711.22;;;;
2021/01/20 05:35:28;;;;;;;2.25;0.9;;;;;;;0.32;100;94711.22;;;;
2021/01/20 05:36:29;;;;;;;2.25;0.9;;;;;;;0.32;100;94711.22;;;;
2021/01/20 05:37:29;;;;;;;2.25;0.9;;;;;;;0.32;100;94711.22;;;;
2021/01/20 05:38:30;;;;;;;2.25;0.9;;;;;;;0.32;100;94711.22;;;;
2021/01/20 05:39:34;;;;;;;2.25;0.9;;;;;;;0.32;100;94711.22;;;;
2021/01/20 05:40:35;;;;;;;2.25;0.9;;;;;;;0.32;100;94711.22;;;;
2021/01/20 05:41:36;;;;;;;2.75;1.3;;;;;;;0.27;100;94713.2;;;;
2021/01/20 05:42:37;;;;;;;2.75;1.3;;;;;;;0.27;100;94713.2;;;;
2021/01/20 05:43:47;;;;;;;2.75;1.3;;;;;;;0.27;100;94713.2;;;;
2021/01/20 05:44:50;;;;;;;2.75;1.3;;;;;;;0.27;100;94713.2;;;;
2021/01/20 05:46:02;;;;;;;2.75;1.3;;;;;;;0.27;100;94713.2;;;;
2021/01/20 05:47:03;;;;;;;2.75;1.3;;;;;;;0.27;100;94713.2;;;;
2021/01/20 05:48:08;;;;;;;2.75;1.3;;;;;;;0.27;100;94713.2;;;;
2021/01/20 05:49:10;;;;;;;2.75;1.3;;;;;;;0.27;100;94713.2;;;;
2021/01/20 05:50:21;;;;;;;2.75;1.3;;;;;;;0.27;100;94713.2;;;;
2021/01/20 05:51:22;;;;;;;2.75;1.3;;;;;;;0.27;100;94713.2;;;;
2021/01/20 05:52:22;;;;;;;1.6;1.2;;;;;;;0.2;100;94706.09;;;;
2021/01/20 05:53:23;;;;;;;1.6;1.2;;;;;;;0.2;100;94706.09;;;;
2021/01/20 05:54:23;;;;;;;1.6;1.2;;;;;;;0.2;100;94706.09;;;;
2021/01/20 05:55:33;;;;;;;1.6;1.2;;;;;;;0.2;100;94706.09;;;;
2021/01/20 05:56:35;;;;;;;1.6;1.2;;;;;;;0.2;100;94706.09;;;;
2021/01/20 05:57:36;;;;;;;1.6;1.2;;;;;;;0.2;100;94706.09;;;;
2021/01/20 05:58:37;;;;;;;1.6;1.2;;;;;;;0.2;100;94706.09;;;;
2021/01/20 05:59:39;;;;;;;1.6;1.2;;;;;;;0.2;100;94706.09;;;;
2021/01/20 06:00:41;;;;;;;1.6;1.2;;;;;;;0.2;100;94706.09;;;;
2021/01/20 06:01:41;;;;;;;1.6;1.2;;;;;;;0.2;100;94706.09;;;;
2021/01/20 06:02:42;;;;;;;3;1.2;;;;;;;0.16;100;94699.13;;;;
2021/01/20 06:03:43;;;;;;;3;1.2;;;;;;;0.16;100;94699.13;;;;
2021/01/20 06:04:44;;;;;;;3;1.2;;;;;;;0.16;100;94699.13;;;;
2021/01/20 06:05:45;;;;;;;3;1.2;;;;;;;0.16;100;94699.13;;;;
2021/01/20 06:06:47;;;;;;;3;1.2;;;;;;;0.16;100;94699.13;;;;
2021/01/20 06:07:51;;;;;;;3;1.2;;;;;;;0.16;100;94699.13;;;;
2021/01/20 06:08:53;;;;;;;3;1.2;;;;;;;0.16;100;94699.13;;;;
2021/01/20 06:09:55;;;;;;;3;1.2;;;;;;;0.16;100;94699.13;;;;
2021/01/20 06:10:57;;;;;;;3;1.2;;;;;;;0.16;100;94699.13;;;;
2021/01/20 06:11:59;;;;;;;3;1.2;;;;;;;0.16;100;94699.13;;;;
2021/01/20 06:12:59;;;;;;;1;1;;;;;;;0.24;100;94695.01;;;;
2021/01/20 06:13:59;;;;;;;1;1;;;;;;;0.24;100;94695.01;;;;
2021/01/20 06:15:00;;;;;;;1;1;;;;;;;0.24;100;94695.01;;;;
2021/01/20 06:16:01;;;;;;;1;1;;;;;;;0.24;100;94695.01;;;;
2021/01/20 06:17:14;;;;;;;1;1;;;;;;;0.24;100;94695.01;;;;
2021/01/20 06:18:20;;;;;;;1;1;;;;;;;0.24;100;94695.01;;;;
2021/01/20 06:19:23;;;;;;;1;1;;;;;;;0.24;100;94695.01;;;;
2021/01/20 06:20:24;;;;;;;1;1;;;;;;;0.24;100;94695.01;;;;
2021/01/20 06:21:25;;;;;;;1;1;;;;;;;0.24;100;94695.01;;;;
2021/01/20 06:22:27;;;;;;;1;1;;;;;;;0.24;100;94695.01;;;;
2021/01/20 06:23:30;;;;;;;1;1;;;;;;;0.24;100;94695.01;;;;
2021/01/20 06:24:35;;;;;;;1.6;1.3;;;;;;;0.42;100;94686.11;;;;
2021/01/20 06:25:43;;;;;;;1.6;1.3;;;;;;;0.42;100;94686.11;;;;
2021/01/20 06:26:45;;;;;;;1.6;1.3;;;;;;;0.42;100;94686.11;;;;
2021/01/20 06:27:50;;;;;;;1.6;1.3;;;;;;;0.42;100;94686.11;;;;
2021/01/20 06:28:54;;;;;;;1.6;1.3;;;;;;;0.42;100;94686.11;;;;
2021/01/20 06:30:00;;;;;;;1.6;1.3;;;;;;;0.42;100;94686.11;;;;
2021/01/20 06:31:08;;;;;;;1.6;1.3;;;;;;;0.42;100;94686.11;;;;
2021/01/20 06:32:10;;;;;;;1.6;1.3;;;;;;;0.42;100;94686.11;;;;
2021/01/20 06:33:17;;;;;;;1.6;1.3;;;;;;;0.42;100;94686.11;;;;
2021/01/20 06:34:19;;;;;;;2.45;1.15;;;;;;;0.58;100;94689.84;;;;
2021/01/20 06:35:20;;;;;;;2.45;1.15;;;;;;;0.58;100;94689.84;;;;
2021/01/20 06:36:21;;;;;;;2.45;1.15;;;;;;;0.58;100;94689.84;;;;
2021/01/20 06:37:30;;;;;;;2.45;1.15;;;;;;;0.58;100;94689.84;;;;
2021/01/20 06:38:41;;;;;;;2.45;1.15;;;;;;;0.58;100;94689.84;;;;
2021/01/20 06:39:41;;;;;;;2.45;1.15;;;;;;;0.58;100;94689.84;;;;
2021/01/20 06:40:42;;;;;;;2.45;1.15;;;;;;;0.58;100;94689.84;;;;
2021/01/20 06:41:42;;;;;;;2.45;1.15;;;;;;;0.58;100;94689.84;;;;
2021/01/20 06:42:43;;;;;;;2.45;1.15;;;;;;;0.58;100;94689.84;;;;